Lajes, Brazil
Current Conditions -  °F | °C
As of 1:00 PM on Wednesday 26 Nov 2014 (Local Time) from SBNT Reporting Station
Scattered Clouds Scattered Clouds  
Wind Chill: 86°   Ceiling: Unl
Heat Index: 88°   Visibility: 6mi
Dew Point: 66°   Wind: 18mph
Humidity: 51%   Direction: 110°ESE
Pressure: 29.88"   Gusts: NA
Location:  5.7°S, 36.24°W
Report Text: SBNT 261600Z 11016KT 9999 SCT030 30/19 Q1012
Loading
Personal Weather Stations






























Interactive Weather Map New forecast layout! Learn more

10-Day Weather Forecast

Advertisements
Track Severe Weather on mobile